createdAt,value
2023-02-02T00:02:07.426Z,15.30
2023-02-02T00:04:35.599Z,12.98
2023-02-02T00:07:03.026Z,14.63
2023-02-02T00:09:30.995Z,13.20
2023-02-02T00:11:58.769Z,16.63
2023-02-02T00:14:26.695Z,13.82
2023-02-02T00:16:56.990Z,12.68
2023-02-02T00:19:30.046Z,12.88
2023-02-02T00:21:57.077Z,9.40
2023-02-02T00:24:24.081Z,18.15
2023-02-02T00:26:52.887Z,15.55
2023-02-02T00:29:24.938Z,16.73
2023-02-02T00:31:51.868Z,14.45
2023-02-02T00:34:18.658Z,16.17
2023-02-02T00:36:45.597Z,15.65
2023-02-02T00:39:16.013Z,17.48
2023-02-02T00:41:42.488Z,19.02
2023-02-02T00:44:27.613Z,20.13
2023-02-02T00:46:54.166Z,16.58
2023-02-02T00:49:20.678Z,18.45
2023-02-02T00:51:47.153Z,23.00
2023-02-02T00:54:14.365Z,24.42
2023-02-02T00:56:41.350Z,15.15
2023-02-02T00:59:07.916Z,21.13
2023-02-02T01:01:34.458Z,20.10
2023-02-02T01:04:01.637Z,18.80
2023-02-02T01:06:28.115Z,16.75
2023-02-02T01:08:54.633Z,12.73
2023-02-02T01:11:21.183Z,16.30
2023-02-02T01:13:47.795Z,20.00
2023-02-02T01:16:14.360Z,12.23
2023-02-02T01:18:41.057Z,15.20
2023-02-02T01:21:10.164Z,11.77
2023-02-02T01:23:37.720Z,15.50
2023-02-02T01:26:06.091Z,16.58
2023-02-02T01:28:32.590Z,11.27
2023-02-02T01:30:59.427Z,10.57
2023-02-02T01:33:25.891Z,8.88
2023-02-02T01:35:54.661Z,15.68
2023-02-02T01:38:21.746Z,9.95
2023-02-02T01:40:55.988Z,13.38
2023-02-02T01:43:23.749Z,11.85
2023-02-02T01:45:52.124Z,10.93
2023-02-02T01:48:20.603Z,12.65
2023-02-02T01:50:49.860Z,13.48
2023-02-02T01:53:17.481Z,11.05
2023-02-02T01:55:44.365Z,10.32
2023-02-02T01:58:16.836Z,13.35
2023-02-02T02:00:45.646Z,11.70
2023-02-02T02:03:16.026Z,17.43
2023-02-02T02:06:10.284Z,12.48
2023-02-02T02:08:47.247Z,18.90
2023-02-02T02:11:14.055Z,21.60
2023-02-02T02:13:59.192Z,17.85
2023-02-02T02:16:34.896Z,27.48
2023-02-02T02:19:27.873Z,23.95
2023-02-02T02:22:19.493Z,26.20
2023-02-02T02:25:07.820Z,25.10
2023-02-02T02:27:56.223Z,29.27
2023-02-02T02:30:31.663Z,29.27
2023-02-02T02:33:04.046Z,26.55
2023-02-02T02:35:59.402Z,27.45
2023-02-02T02:38:35.007Z,31.58
2023-02-02T02:41:04.929Z,27.20
2023-02-02T02:43:35.377Z,25.13
2023-02-02T02:46:02.640Z,26.60
2023-02-02T02:48:29.628Z,28.02
2023-02-02T02:51:29.237Z,25.90
2023-02-02T02:53:56.221Z,27.77
2023-02-02T02:56:48.766Z,26.58
2023-02-02T02:59:30.720Z,20.40
2023-02-02T03:02:00.235Z,16.08
2023-02-02T03:04:44.499Z,21.70
2023-02-02T03:07:17.772Z,17.83
2023-02-02T03:09:45.171Z,19.67
2023-02-02T03:12:11.718Z,17.08
2023-02-02T03:14:39.443Z,17.00
2023-02-02T03:17:06.990Z,21.50
2023-02-02T03:19:33.669Z,14.75
2023-02-02T03:22:00.139Z,19.23
2023-02-02T03:24:26.707Z,15.30
2023-02-02T03:26:53.314Z,10.45
2023-02-02T03:29:19.794Z,13.15
2023-02-02T03:31:46.465Z,11.23
2023-02-02T03:34:12.937Z,9.25
2023-02-02T03:36:39.331Z,9.50
2023-02-02T03:39:05.707Z,16.63
2023-02-02T03:41:32.179Z,14.55
2023-02-02T03:43:58.585Z,10.68
2023-02-02T03:46:25.022Z,13.30
2023-02-02T03:48:51.562Z,9.88
2023-02-02T03:51:18.055Z,12.95
2023-02-02T03:53:44.709Z,15.45
2023-02-02T03:56:11.175Z,12.98
2023-02-02T03:58:37.692Z,12.25
2023-02-02T04:01:08.807Z,11.00
2023-02-02T04:03:35.253Z,14.80
2023-02-02T04:06:01.743Z,17.58
2023-02-02T04:08:28.679Z,15.13
2023-02-02T04:10:55.131Z,18.27
2023-02-02T04:13:21.583Z,17.65
2023-02-02T04:15:48.178Z,18.42
2023-02-02T04:18:14.650Z,20.45
2023-02-02T04:20:41.134Z,22.45
2023-02-02T04:23:07.614Z,23.13
2023-02-02T04:25:34.207Z,20.02
2023-02-02T04:28:00.643Z,17.45
2023-02-02T04:30:27.119Z,20.92
2023-02-02T04:32:54.888Z,25.20
2023-02-02T04:35:21.375Z,19.55
2023-02-02T04:37:47.866Z,19.90
2023-02-02T04:40:14.524Z,25.15
2023-02-02T04:42:41.043Z,21.10
2023-02-02T04:45:07.943Z,30.30
2023-02-02T04:47:34.408Z,30.55
2023-02-02T04:50:00.922Z,41.00
2023-02-02T04:52:28.983Z,36.22
2023-02-02T04:54:55.441Z,41.45
2023-02-02T04:57:21.924Z,53.05
2023-02-02T04:59:48.389Z,47.50
2023-02-02T05:02:14.916Z,51.33
2023-02-02T05:04:41.524Z,52.72
2023-02-02T05:07:08.173Z,48.95
2023-02-02T05:09:34.873Z,42.63
2023-02-02T05:12:01.370Z,47.35
2023-02-02T05:14:27.909Z,47.13
2023-02-02T05:17:02.011Z,43.33
2023-02-02T05:19:28.701Z,42.42
2023-02-02T05:21:55.812Z,44.05
2023-02-02T05:24:22.251Z,49.40
2023-02-02T05:26:48.840Z,43.47
2023-02-02T05:29:15.391Z,37.63
2023-02-02T05:31:41.862Z,40.45
2023-02-02T05:34:11.356Z,38.60
2023-02-02T05:36:37.924Z,24.98
2023-02-02T05:39:05.613Z,34.15
2023-02-02T05:41:32.196Z,40.92
2023-02-02T05:44:01.851Z,31.75
2023-02-02T05:46:28.638Z,27.90
2023-02-02T05:48:55.192Z,28.08
2023-02-02T05:51:28.128Z,25.42
2023-02-02T05:53:54.817Z,32.75
2023-02-02T05:56:21.405Z,27.92
2023-02-02T05:58:49.870Z,24.65
2023-02-02T06:01:17.616Z,27.60
2023-02-02T06:03:44.261Z,27.65
2023-02-02T06:06:10.811Z,26.25
2023-02-02T06:08:37.277Z,40.22
2023-02-02T06:11:16.107Z,25.58
2023-02-02T06:13:44.865Z,28.00
2023-02-02T06:16:12.648Z,25.92
2023-02-02T06:18:39.160Z,27.52
2023-02-02T06:21:06.354Z,28.00
2023-02-02T06:23:33.708Z,24.33
2023-02-02T06:26:00.721Z,31.23
2023-02-02T06:28:27.243Z,30.00
2023-02-02T06:30:53.765Z,35.17
2023-02-02T06:33:20.355Z,22.23
2023-02-02T06:35:47.049Z,27.45
2023-02-02T06:38:13.607Z,22.70
2023-02-02T06:40:40.064Z,22.30
2023-02-02T06:43:06.766Z,31.02
2023-02-02T06:45:33.438Z,29.85
2023-02-02T06:48:03.865Z,27.95
2023-02-02T06:50:30.415Z,35.15
2023-02-02T06:52:56.888Z,30.05
2023-02-02T06:55:23.698Z,23.92
2023-02-02T06:57:56.573Z,21.30
2023-02-02T07:00:23.182Z,24.38
2023-02-02T07:02:49.694Z,24.25
2023-02-02T07:05:16.349Z,30.77
2023-02-02T07:07:42.771Z,28.52
2023-02-02T07:10:09.568Z,34.63
2023-02-02T07:12:56.201Z,22.33
2023-02-02T07:15:23.160Z,34.33
2023-02-02T07:17:49.938Z,28.30
2023-02-02T07:20:16.776Z,33.95
2023-02-02T07:22:43.389Z,30.90
2023-02-02T07:25:09.908Z,27.08
2023-02-02T07:27:36.387Z,31.17
2023-02-02T07:30:04.074Z,31.27
2023-02-02T07:32:30.557Z,31.02
2023-02-02T07:34:57.027Z,36.13
2023-02-02T07:37:30.129Z,36.97
2023-02-02T07:39:56.723Z,27.77
2023-02-02T07:42:23.198Z,32.08
2023-02-02T07:44:49.664Z,32.95
2023-02-02T07:47:17.328Z,31.95
2023-02-02T07:49:45.048Z,25.17
2023-02-02T07:52:11.527Z,34.72
2023-02-02T07:54:38.007Z,28.70
2023-02-02T07:57:04.663Z,30.35
2023-02-02T07:59:32.428Z,28.02
2023-02-02T08:01:59.151Z,33.13
2023-02-02T08:04:25.646Z,32.13
2023-02-02T08:06:52.125Z,25.85
2023-02-02T08:09:18.549Z,35.60
2023-02-02T08:11:45.026Z,32.45
2023-02-02T08:14:14.225Z,29.75
2023-02-02T08:16:40.747Z,26.55
2023-02-02T08:19:07.251Z,30.63
2023-02-02T08:21:34.745Z,31.23
2023-02-02T08:24:02.500Z,32.92
2023-02-02T08:26:30.151Z,33.58
2023-02-02T08:28:59.321Z,28.33
2023-02-02T08:31:37.939Z,35.50
2023-02-02T08:34:05.078Z,41.13
2023-02-02T08:36:32.068Z,36.03
2023-02-02T08:39:03.444Z,34.58
2023-02-02T08:41:30.381Z,33.80
2023-02-02T08:43:56.899Z,33.00
2023-02-02T08:46:23.471Z,34.30
2023-02-02T08:48:50.109Z,30.58
2023-02-02T08:51:18.743Z,38.75
2023-02-02T08:53:46.301Z,28.33
2023-02-02T08:56:17.937Z,31.27
2023-02-02T08:58:46.734Z,35.20
2023-02-02T09:01:15.932Z,32.92
2023-02-02T09:03:42.552Z,31.17
2023-02-02T09:06:14.659Z,36.72
2023-02-02T09:08:41.678Z,36.35
2023-02-02T09:11:11.612Z,34.65
2023-02-02T09:13:39.662Z,35.30
2023-02-02T09:16:08.549Z,29.40
2023-02-02T09:18:35.196Z,31.88
2023-02-02T09:21:04.589Z,28.08
2023-02-02T09:23:35.104Z,34.05
2023-02-02T09:26:12.831Z,30.13
2023-02-02T09:28:40.878Z,29.33
2023-02-02T09:31:08.040Z,27.63
2023-02-02T09:33:35.399Z,33.78
2023-02-02T09:36:12.821Z,30.70
2023-02-02T09:38:40.710Z,31.35
2023-02-02T09:41:41.497Z,25.73
2023-02-02T09:44:22.889Z,29.52
2023-02-02T09:47:19.721Z,32.80
2023-02-02T09:49:49.075Z,33.58
2023-02-02T09:52:48.615Z,34.25
2023-02-02T09:55:32.223Z,29.08
2023-02-02T09:58:15.381Z,30.15
2023-02-02T10:01:17.920Z,38.20
2023-02-02T10:04:00.560Z,30.27
2023-02-02T10:06:47.113Z,35.78
2023-02-02T10:09:52.026Z,25.15
2023-02-02T10:16:06.831Z,28.15
2023-02-02T10:19:06.303Z,28.65
2023-02-02T10:21:55.115Z,28.75
2023-02-02T10:24:31.663Z,30.02
2023-02-02T10:27:04.595Z,33.88
2023-02-02T10:30:04.859Z,24.77
2023-02-02T10:33:26.570Z,33.55
2023-02-02T10:36:42.565Z,36.22
2023-02-02T10:39:59.569Z,37.88
2023-02-02T10:45:23.076Z,33.15
2023-02-02T10:47:59.371Z,32.72
2023-02-02T10:50:31.518Z,34.95
2023-02-02T10:53:04.297Z,32.15
2023-02-02T10:55:46.275Z,33.40
2023-02-02T11:01:05.485Z,35.25
2023-02-02T11:03:42.455Z,34.13
2023-02-02T11:06:44.503Z,33.92
2023-02-02T11:09:15.807Z,34.53
2023-02-02T11:11:47.470Z,36.88
2023-02-02T11:14:52.903Z,27.35
2023-02-02T11:17:29.924Z,38.47
2023-02-02T11:20:00.575Z,35.40
2023-02-02T11:22:40.030Z,27.83
2023-02-02T11:25:25.653Z,27.67
2023-02-02T11:27:53.655Z,27.77
2023-02-02T11:30:38.589Z,30.23
2023-02-02T11:33:34.137Z,31.77
2023-02-02T11:36:12.903Z,29.33
2023-02-02T11:41:22.352Z,30.35
2023-02-02T11:44:07.643Z,28.80
2023-02-02T11:46:40.466Z,28.23
2023-02-02T11:49:17.481Z,26.08
2023-02-02T11:51:53.671Z,31.63
2023-02-02T11:54:31.586Z,32.47
2023-02-02T11:57:07.482Z,27.42
2023-02-02T11:59:49.017Z,25.17
2023-02-02T12:02:44.882Z,23.08
2023-02-02T12:05:35.510Z,23.73
2023-02-02T12:08:13.727Z,17.45
2023-02-02T12:11:10.507Z,21.65
2023-02-02T12:16:55.003Z,32.65
2023-02-02T12:19:28.446Z,21.90
2023-02-02T12:22:24.173Z,20.77
2023-02-02T12:27:28.249Z,24.98
2023-02-02T12:30:43.420Z,19.63
2023-02-02T12:33:41.834Z,33.28
2023-02-02T12:36:26.097Z,28.67
2023-02-02T12:39:11.484Z,23.88
2023-02-02T12:41:59.929Z,28.40
2023-02-02T12:44:39.109Z,26.13
2023-02-02T12:47:16.767Z,26.08
2023-02-02T12:50:08.356Z,25.27
2023-02-02T12:52:47.152Z,24.70
2023-02-02T12:55:18.435Z,25.08
2023-02-02T12:58:07.835Z,20.75
2023-02-02T13:01:06.318Z,24.60
2023-02-02T13:03:41.374Z,23.90
2023-02-02T13:06:42.932Z,26.92
2023-02-02T13:09:18.352Z,30.08
2023-02-02T13:11:50.801Z,30.77
2023-02-02T13:14:24.390Z,30.10
2023-02-02T13:16:54.584Z,36.17
2023-02-02T13:19:26.599Z,29.00
2023-02-02T13:21:57.084Z,27.60
2023-02-02T13:24:28.180Z,34.33
2023-02-02T13:32:40.521Z,25.60
2023-02-02T13:35:20.843Z,28.50
2023-02-02T13:38:12.277Z,29.92
2023-02-02T13:40:40.675Z,34.00
2023-02-02T13:43:32.292Z,24.98
2023-02-02T13:46:23.632Z,25.65
2023-02-02T13:49:06.700Z,25.58
2023-02-02T13:51:59.267Z,28.92
2023-02-02T13:54:53.405Z,24.08
2023-02-02T14:00:00.928Z,32.55
2023-02-02T14:02:40.687Z,28.92
2023-02-02T14:05:08.969Z,28.10
2023-02-02T14:07:43.245Z,28.45
2023-02-02T14:10:34.588Z,21.30
2023-02-02T14:13:30.294Z,28.27
2023-02-02T14:16:03.729Z,29.83
2023-02-02T14:18:49.061Z,31.02
2023-02-02T14:21:33.984Z,33.13
2023-02-02T14:24:04.921Z,21.92
2023-02-02T14:29:46.992Z,28.55
2023-02-02T14:32:27.814Z,22.92
2023-02-02T14:35:13.835Z,20.95
2023-02-02T14:38:14.577Z,22.48
2023-02-02T14:40:44.022Z,21.55
2023-02-02T14:43:45.752Z,23.98
2023-02-02T14:46:15.574Z,34.33
2023-02-02T14:48:46.684Z,23.95
2023-02-02T14:53:49.573Z,26.42
2023-02-02T14:56:17.205Z,33.15
2023-02-02T14:58:53.985Z,25.00
2023-02-02T15:01:26.185Z,28.23
2023-02-02T15:03:56.663Z,32.70
2023-02-02T15:06:23.167Z,25.33
2023-02-02T15:09:29.289Z,31.40
2023-02-02T15:12:00.871Z,32.72
2023-02-02T15:14:52.955Z,32.55
2023-02-02T15:17:33.724Z,26.50
2023-02-02T15:20:09.005Z,26.88
2023-02-02T15:22:41.475Z,30.08
2023-02-02T15:25:35.590Z,28.13
2023-02-02T15:28:21.639Z,34.67
2023-02-02T15:30:58.807Z,30.25
2023-02-02T15:33:30.835Z,27.50
2023-02-02T15:36:04.021Z,25.42
2023-02-02T15:38:37.164Z,25.98
2023-02-02T15:41:23.531Z,26.30
2023-02-02T15:43:53.405Z,30.52
2023-02-02T15:46:33.153Z,26.58
2023-02-02T15:49:33.929Z,31.80
2023-02-02T15:52:26.260Z,25.05
2023-02-02T15:57:53.151Z,30.65
2023-02-02T16:00:41.618Z,27.48
2023-02-02T16:03:27.784Z,32.42
2023-02-02T16:06:07.142Z,33.60
2023-02-02T16:08:38.042Z,35.08
2023-02-02T16:11:34.596Z,42.40
2023-02-02T16:14:07.536Z,35.25
2023-02-02T16:16:52.375Z,40.22
2023-02-02T16:19:27.104Z,41.20
2023-02-02T16:22:05.738Z,46.65
2023-02-02T16:24:44.637Z,42.78
2023-02-02T16:27:32.069Z,53.78
2023-02-02T16:30:09.021Z,38.63
2023-02-02T16:32:38.948Z,38.47
2023-02-02T16:35:07.508Z,36.70
2023-02-02T16:37:36.427Z,40.70
2023-02-02T16:40:26.521Z,47.95
2023-02-02T16:43:25.795Z,43.53
2023-02-02T16:45:56.289Z,41.17
2023-02-02T16:48:45.155Z,42.80
2023-02-02T16:51:17.911Z,41.33
2023-02-02T16:53:55.231Z,37.20
2023-02-02T16:56:44.138Z,35.45
2023-02-02T16:59:25.912Z,38.58
2023-02-02T17:01:55.010Z,30.65
2023-02-02T17:04:31.049Z,33.08
2023-02-02T17:07:05.974Z,32.95
2023-02-02T17:09:35.599Z,44.40
2023-02-02T17:12:32.681Z,32.00
2023-02-02T17:15:22.396Z,34.92
2023-02-02T17:17:49.217Z,29.52
2023-02-02T17:20:17.792Z,35.10
2023-02-02T17:22:47.850Z,30.27
2023-02-02T17:25:17.188Z,29.13
2023-02-02T17:27:45.197Z,29.63
2023-02-02T17:30:17.273Z,31.75
2023-02-02T17:32:43.780Z,30.08
2023-02-02T17:35:19.359Z,29.73
2023-02-02T17:37:45.836Z,34.90
2023-02-02T17:40:16.001Z,32.42
2023-02-02T17:42:44.103Z,28.77
2023-02-02T17:45:15.032Z,31.60
2023-02-02T17:50:08.130Z,30.15
2023-02-02T17:52:34.744Z,32.25
2023-02-02T17:55:01.192Z,31.17
2023-02-02T17:57:27.640Z,30.92
2023-02-02T17:59:54.319Z,29.20
2023-02-02T18:02:20.814Z,27.95
2023-02-02T18:04:47.271Z,30.67
2023-02-02T18:07:14.591Z,25.17
2023-02-02T18:09:41.066Z,26.85
2023-02-02T18:12:07.714Z,22.95
2023-02-02T18:14:34.190Z,21.17
2023-02-02T18:17:02.178Z,26.48
2023-02-02T18:19:28.804Z,24.83
2023-02-02T18:21:55.282Z,22.05
2023-02-02T18:24:21.805Z,20.77
2023-02-02T18:26:48.524Z,20.38
2023-02-02T18:29:15.998Z,20.00
2023-02-02T18:31:42.641Z,25.05
2023-02-02T18:34:09.426Z,22.23
2023-02-02T18:36:38.317Z,20.08
2023-02-02T18:39:04.861Z,20.55
2023-02-02T18:41:31.578Z,18.65
2023-02-02T18:43:58.156Z,18.92
2023-02-02T18:46:26.618Z,18.60
2023-02-02T18:49:02.303Z,19.50
2023-02-02T18:51:30.152Z,22.80
2023-02-02T18:54:11.162Z,21.98
2023-02-02T19:01:46.493Z,24.85
2023-02-02T19:04:13.199Z,23.92
2023-02-02T19:06:58.621Z,26.80
2023-02-02T19:09:27.365Z,28.42
2023-02-02T19:11:55.030Z,31.65
2023-02-02T19:14:43.773Z,32.60
2023-02-02T19:17:25.496Z,33.53
2023-02-02T19:19:52.650Z,36.90
2023-02-02T19:22:28.734Z,38.53
2023-02-02T19:27:40.957Z,44.17
2023-02-02T19:30:17.189Z,41.55
2023-02-02T19:32:45.158Z,51.85
2023-02-02T19:35:18.561Z,41.55
2023-02-02T19:37:47.264Z,45.97
2023-02-02T19:40:22.157Z,45.78
2023-02-02T19:42:58.680Z,50.47
2023-02-02T19:45:33.380Z,44.33
2023-02-02T19:48:01.966Z,49.15
2023-02-02T19:50:33.712Z,47.42
2023-02-02T19:53:02.306Z,41.80
2023-02-02T19:55:30.509Z,43.90
2023-02-02T19:58:02.552Z,44.78
2023-02-02T20:00:31.503Z,45.30
2023-02-02T20:02:59.060Z,44.40
2023-02-02T20:05:29.294Z,42.08
2023-02-02T20:08:21.039Z,43.40
2023-02-02T20:10:47.844Z,42.42
2023-02-02T20:13:24.819Z,41.70
2023-02-02T20:15:54.683Z,40.47
2023-02-02T20:18:25.153Z,42.60
2023-02-02T20:20:54.393Z,41.15
2023-02-02T20:23:39.884Z,46.47
2023-02-02T20:26:36.658Z,40.15
2023-02-02T20:29:24.123Z,44.92
2023-02-02T20:31:54.952Z,36.92
2023-02-02T20:34:30.214Z,41.13
2023-02-02T20:37:02.797Z,42.75
2023-02-02T20:39:36.399Z,43.65
2023-02-02T20:42:03.969Z,42.92
2023-02-02T20:45:04.367Z,47.35
2023-02-02T20:47:30.924Z,49.42
2023-02-02T20:50:00.394Z,43.35
2023-02-02T20:52:30.863Z,45.00
2023-02-02T20:54:58.328Z,43.95
2023-02-02T20:57:24.795Z,40.42
2023-02-02T20:59:57.409Z,43.65
2023-02-02T21:02:27.573Z,40.55
2023-02-02T21:04:54.254Z,47.50
2023-02-02T21:07:21.324Z,33.75
2023-02-02T21:09:49.555Z,37.53
2023-02-02T21:12:17.075Z,41.15
2023-02-02T21:14:45.126Z,38.65
2023-02-02T21:17:16.041Z,36.15
2023-02-02T21:19:43.610Z,37.53
2023-02-02T21:22:10.949Z,36.00
2023-02-02T21:24:37.660Z,34.42
2023-02-02T21:27:04.599Z,39.00
2023-02-02T21:29:32.144Z,33.33
2023-02-02T21:32:02.550Z,33.08
2023-02-02T21:34:29.947Z,30.17
2023-02-02T21:36:58.228Z,28.83
2023-02-02T21:39:33.668Z,25.63
2023-02-02T21:42:12.335Z,26.20
2023-02-02T21:44:44.192Z,27.33
2023-02-02T21:47:23.019Z,27.60
2023-02-02T21:49:49.523Z,26.10
2023-02-02T21:52:17.860Z,25.30
2023-02-02T21:54:44.795Z,26.77
2023-02-02T21:57:20.782Z,27.50
2023-02-02T21:59:55.607Z,24.63
2023-02-02T22:02:44.581Z,25.35
2023-02-02T22:05:36.067Z,25.23
2023-02-02T22:08:25.376Z,27.02
2023-02-02T22:10:51.957Z,25.30
2023-02-02T22:13:21.716Z,30.02
2023-02-02T22:15:50.911Z,28.27
2023-02-02T22:18:24.165Z,32.05
2023-02-02T22:20:54.460Z,30.90
2023-02-02T22:23:25.548Z,28.00
2023-02-02T22:25:54.350Z,30.00
2023-02-02T22:28:33.381Z,31.45
2023-02-02T22:31:00.875Z,31.08
2023-02-02T22:33:27.589Z,29.30
2023-02-02T22:35:54.313Z,26.95
2023-02-02T22:38:23.267Z,29.75
2023-02-02T22:40:50.689Z,31.30
2023-02-02T22:43:18.505Z,29.60
2023-02-02T22:45:45.561Z,31.23
2023-02-02T22:48:13.454Z,28.27
2023-02-02T22:50:40.042Z,29.15
2023-02-02T22:53:06.498Z,29.77
2023-02-02T22:55:33.318Z,29.55
2023-02-02T22:57:59.813Z,29.15
2023-02-02T23:00:30.270Z,29.67
2023-02-02T23:02:57.026Z,28.02
2023-02-02T23:05:25.025Z,24.75
2023-02-02T23:07:52.078Z,26.48
2023-02-02T23:10:21.212Z,25.35
2023-02-02T23:12:48.221Z,30.98
2023-02-02T23:15:15.601Z,27.20
2023-02-02T23:17:42.199Z,24.17
2023-02-02T23:20:11.300Z,28.27
2023-02-02T23:22:37.764Z,29.40
2023-02-02T23:25:04.976Z,25.90
2023-02-02T23:27:31.557Z,25.08
2023-02-02T23:29:58.058Z,23.77
2023-02-02T23:32:24.739Z,24.98
2023-02-02T23:34:51.167Z,21.77
2023-02-02T23:37:17.807Z,22.13
2023-02-02T23:39:44.298Z,21.73
2023-02-02T23:42:10.754Z,24.00
2023-02-02T23:44:37.430Z,23.88
2023-02-02T23:47:04.244Z,27.13
2023-02-02T23:49:31.454Z,24.90
2023-02-02T23:51:58.017Z,23.20
2023-02-02T23:54:24.795Z,25.48
2023-02-02T23:56:51.448Z,21.58
2023-02-02T23:59:17.927Z,23.77
